createdAt,value
2023-04-17T00:01:04.160Z,37.30
2023-04-17T00:03:32.098Z,49.90
2023-04-17T00:05:56.960Z,46.55
2023-04-17T00:08:21.557Z,44.10
2023-04-17T00:10:53.785Z,45.22
2023-04-17T00:13:25.451Z,43.53
2023-04-17T00:15:52.510Z,50.40
2023-04-17T00:18:17.156Z,32.80
2023-04-17T00:20:42.072Z,39.85
2023-04-17T00:23:07.397Z,46.20
2023-04-17T00:25:31.909Z,42.05
2023-04-17T00:27:56.656Z,46.63
2023-04-17T00:30:21.185Z,53.75
2023-04-17T00:32:47.525Z,56.03
2023-04-17T00:35:12.498Z,47.70
2023-04-17T00:37:37.469Z,49.47
2023-04-17T00:40:02.476Z,44.92
2023-04-17T00:42:29.464Z,37.53
2023-04-17T00:44:54.203Z,53.53
2023-04-17T00:47:22.431Z,47.40
2023-04-17T00:49:48.606Z,58.47
2023-04-17T00:52:14.083Z,52.03
2023-04-17T00:54:38.774Z,50.33
2023-04-17T00:57:04.938Z,50.17
2023-04-17T00:59:30.047Z,51.17
2023-04-17T01:01:54.522Z,58.92
2023-04-17T01:04:19.526Z,54.33
2023-04-17T01:06:46.058Z,60.67
2023-04-17T01:09:11.279Z,48.17
2023-04-17T01:11:36.464Z,60.33
2023-04-17T01:14:01.128Z,45.55
2023-04-17T01:16:25.694Z,53.05
2023-04-17T01:18:50.827Z,62.72
2023-04-17T01:21:16.698Z,60.60
2023-04-17T01:23:50.148Z,60.97
2023-04-17T01:26:19.566Z,55.70
2023-04-17T01:28:44.154Z,55.78
2023-04-17T01:31:08.910Z,44.53
2023-04-17T01:33:33.540Z,54.90
2023-04-17T01:35:58.237Z,49.38
2023-04-17T01:38:22.839Z,52.40
2023-04-17T01:40:47.303Z,51.30
2023-04-17T01:43:13.551Z,43.03
2023-04-17T01:45:38.132Z,52.83
2023-04-17T01:48:02.676Z,48.63
2023-04-17T01:50:27.765Z,49.00
2023-04-17T01:52:52.344Z,49.90
2023-04-17T01:55:16.948Z,49.78
2023-04-17T01:57:42.433Z,48.72
2023-04-17T02:00:10.965Z,49.92
2023-04-17T02:02:38.657Z,44.17
2023-04-17T02:05:03.761Z,49.58
2023-04-17T02:07:28.410Z,38.53
2023-04-17T02:09:52.959Z,44.13
2023-04-17T02:12:17.589Z,49.42
2023-04-17T02:14:42.233Z,46.90
2023-04-17T02:17:08.303Z,46.00
2023-04-17T02:19:32.916Z,31.52
2023-04-17T02:22:00.940Z,51.22
2023-04-17T02:24:25.589Z,52.58
2023-04-17T02:26:50.046Z,63.05
2023-04-17T02:29:14.690Z,65.80
2023-04-17T02:31:42.510Z,53.67
2023-04-17T02:34:10.741Z,62.20
2023-04-17T02:36:37.385Z,57.55
2023-04-17T02:39:02.503Z,47.33
2023-04-17T02:41:26.899Z,52.40
2023-04-17T02:43:51.923Z,57.13
2023-04-17T02:46:16.652Z,56.30
2023-04-17T02:48:41.975Z,57.60
2023-04-17T02:51:07.968Z,60.22
2023-04-17T02:53:32.743Z,42.45
2023-04-17T02:55:57.273Z,44.22
2023-04-17T02:58:22.535Z,47.55
2023-04-17T03:00:47.181Z,49.03
2023-04-17T03:03:15.181Z,37.42
2023-04-17T03:05:39.894Z,48.30
2023-04-17T03:08:07.303Z,46.53
2023-04-17T03:10:40.151Z,48.42
2023-04-17T03:13:05.003Z,54.58
2023-04-17T03:15:31.174Z,47.22
2023-04-17T03:17:56.271Z,53.58
2023-04-17T03:20:21.237Z,57.80
2023-04-17T03:22:46.122Z,53.72
2023-04-17T03:25:13.327Z,55.40
2023-04-17T03:27:52.562Z,59.35
2023-04-17T03:30:20.031Z,71.18
2023-04-17T03:32:47.137Z,61.17
2023-04-17T03:35:12.286Z,61.22
2023-04-17T03:37:36.733Z,67.28
2023-04-17T03:40:01.586Z,68.30
2023-04-17T03:42:29.963Z,63.00
2023-04-17T03:44:55.632Z,58.38
2023-04-17T03:47:21.923Z,73.47
2023-04-17T03:49:46.493Z,63.67
2023-04-17T03:52:11.082Z,62.50
2023-04-17T03:54:36.871Z,50.75
2023-04-17T03:57:04.053Z,53.05
2023-04-17T03:59:31.701Z,54.03
2023-04-17T04:01:56.882Z,60.67
2023-04-17T04:04:22.394Z,55.28
2023-04-17T04:06:54.607Z,53.22
2023-04-17T04:09:19.361Z,45.17
2023-04-17T04:11:44.038Z,56.72
2023-04-17T04:14:08.813Z,43.90
2023-04-17T04:16:35.366Z,48.25
2023-04-17T04:19:08.044Z,55.10
2023-04-17T04:21:33.131Z,33.20
2023-04-17T04:23:58.305Z,39.08
2023-04-17T04:26:24.473Z,43.50
2023-04-17T04:28:51.797Z,60.83
2023-04-17T04:31:30.691Z,44.38
2023-04-17T04:34:01.367Z,46.70
2023-04-17T04:36:29.938Z,41.72
2023-04-17T04:39:20.858Z,41.92
2023-04-17T04:41:46.481Z,43.58
2023-04-17T04:44:12.629Z,44.83
2023-04-17T04:46:39.162Z,44.63
2023-04-17T04:49:05.139Z,48.00
2023-04-17T04:51:33.931Z,47.65
2023-04-17T04:54:02.141Z,46.63
2023-04-17T04:56:26.892Z,45.75
2023-04-17T04:58:51.786Z,43.75
2023-04-17T05:01:17.659Z,44.85
2023-04-17T05:03:45.103Z,39.80
2023-04-17T05:06:16.202Z,48.28
2023-04-17T05:08:46.334Z,41.10
2023-04-17T05:11:13.036Z,39.55
2023-04-17T05:13:37.666Z,52.20
2023-04-17T05:16:04.277Z,54.33
2023-04-17T05:18:29.049Z,42.22
2023-04-17T05:20:54.304Z,44.28
2023-04-17T05:23:23.085Z,49.38
2023-04-17T05:25:49.186Z,61.35
2023-04-17T05:28:15.473Z,64.82
2023-04-17T05:30:41.791Z,47.05
2023-04-17T05:33:13.709Z,57.13
2023-04-17T05:35:47.584Z,48.00
2023-04-17T05:38:13.532Z,51.85
2023-04-17T05:40:39.368Z,48.75
2023-04-17T05:43:10.579Z,51.60
2023-04-17T05:45:36.746Z,42.45
2023-04-17T05:48:01.779Z,50.83
2023-04-17T05:50:26.612Z,47.08
2023-04-17T05:52:51.357Z,58.97
2023-04-17T05:55:16.909Z,47.55
2023-04-17T05:57:42.936Z,40.22
2023-04-17T06:00:13.160Z,48.58
2023-04-17T06:02:44.100Z,53.25
2023-04-17T06:05:16.614Z,42.15
2023-04-17T06:07:43.001Z,59.10
2023-04-17T06:10:11.449Z,56.70
2023-04-17T06:12:36.783Z,50.05
2023-04-17T06:15:09.102Z,48.03
2023-04-17T06:17:34.084Z,46.10
2023-04-17T06:19:58.977Z,46.75
2023-04-17T06:22:24.407Z,41.33
2023-04-17T06:24:49.195Z,41.05
2023-04-17T06:27:14.417Z,37.10
2023-04-17T06:29:38.910Z,36.47
2023-04-17T06:32:05.135Z,38.33
2023-04-17T06:34:29.668Z,27.45
2023-04-17T06:36:54.725Z,53.83
2023-04-17T06:39:19.393Z,37.00
2023-04-17T06:41:48.557Z,32.97
2023-04-17T06:44:21.838Z,33.88
2023-04-17T06:46:46.799Z,32.58
2023-04-17T06:49:13.167Z,38.38
2023-04-17T06:51:37.870Z,29.92
2023-04-17T06:54:02.364Z,35.25
2023-04-17T06:56:27.256Z,40.65
2023-04-17T06:58:51.949Z,33.10
2023-04-17T07:01:16.987Z,37.80
2023-04-17T07:03:42.736Z,31.42
2023-04-17T07:06:10.798Z,30.27
2023-04-17T07:08:35.319Z,43.72
2023-04-17T07:11:00.752Z,39.35
2023-04-17T07:13:25.232Z,36.80
2023-04-17T07:15:53.533Z,43.50
2023-04-17T07:18:18.197Z,43.53
2023-04-17T07:20:42.829Z,39.13
2023-04-17T07:23:09.144Z,42.65
2023-04-17T07:25:35.448Z,42.38
2023-04-17T07:28:00.012Z,39.15
2023-04-17T07:30:24.628Z,43.15
2023-04-17T07:32:49.188Z,34.65
2023-04-17T07:35:13.879Z,30.58
2023-04-17T07:37:38.277Z,36.72
2023-04-17T07:40:10.373Z,30.40
2023-04-17T07:42:35.021Z,26.27
2023-04-17T07:44:59.594Z,31.40
2023-04-17T07:47:24.600Z,34.10
2023-04-17T07:49:50.483Z,32.72
2023-04-17T07:52:18.036Z,28.95
2023-04-17T07:54:42.622Z,32.85
2023-04-17T07:57:08.561Z,34.22
2023-04-17T07:59:33.157Z,35.05
2023-04-17T08:01:58.303Z,37.65
2023-04-17T08:04:24.459Z,40.67
2023-04-17T08:06:49.671Z,39.50
2023-04-17T08:09:14.371Z,40.58
2023-04-17T08:11:53.355Z,45.10
2023-04-17T08:14:23.810Z,38.45
2023-04-17T08:16:48.753Z,40.47
2023-04-17T08:19:13.756Z,45.15
2023-04-17T08:21:38.638Z,43.70
2023-04-17T08:24:03.500Z,45.00
2023-04-17T08:26:28.563Z,55.08
2023-04-17T08:28:53.745Z,45.50
2023-04-17T08:31:19.765Z,45.03
2023-04-17T08:33:44.855Z,45.65
2023-04-17T08:36:10.575Z,40.25
2023-04-17T08:38:35.257Z,44.00
2023-04-17T08:41:05.682Z,48.38
2023-04-17T08:43:30.599Z,45.38
2023-04-17T08:45:55.848Z,57.95
2023-04-17T08:48:22.647Z,44.38
2023-04-17T08:50:49.631Z,40.30
2023-04-17T08:53:14.482Z,42.50
2023-04-17T08:55:40.542Z,37.35
2023-04-17T08:58:07.659Z,44.95
2023-04-17T09:00:34.098Z,41.80
2023-04-17T09:03:01.188Z,41.85
2023-04-17T09:05:30.380Z,44.38
2023-04-17T09:08:09.281Z,40.30
2023-04-17T09:10:37.861Z,46.25
2023-04-17T09:13:02.638Z,36.50
2023-04-17T09:15:27.435Z,46.95
2023-04-17T09:17:54.906Z,46.97
2023-04-17T09:20:20.107Z,50.80
2023-04-17T09:22:46.597Z,37.17
2023-04-17T09:25:18.740Z,48.67
2023-04-17T09:27:46.040Z,48.47
2023-04-17T09:30:11.156Z,51.63
2023-04-17T09:32:36.570Z,51.92
2023-04-17T09:35:02.823Z,49.65
2023-04-17T09:37:51.314Z,37.43
2023-04-17T09:40:16.352Z,45.58
2023-04-17T09:42:56.273Z,60.28
2023-04-17T09:45:22.371Z,52.58
2023-04-17T09:47:49.259Z,52.80
2023-04-17T09:50:15.444Z,53.67
2023-04-17T09:52:41.595Z,50.95
2023-04-17T09:55:10.584Z,58.88
2023-04-17T09:57:35.255Z,46.45
2023-04-17T10:00:04.237Z,57.10
2023-04-17T10:02:33.055Z,54.47
2023-04-17T10:04:58.234Z,58.47
2023-04-17T10:07:22.869Z,51.65
2023-04-17T10:09:48.246Z,64.72
2023-04-17T10:12:16.963Z,53.40
2023-04-17T10:14:44.209Z,54.58
2023-04-17T10:17:24.958Z,44.20
2023-04-17T10:19:50.264Z,45.20
2023-04-17T10:22:31.804Z,52.50
2023-04-17T10:25:20.149Z,42.42
2023-04-17T10:27:47.566Z,54.58
2023-04-17T10:30:13.893Z,41.70
2023-04-17T10:32:39.367Z,32.17
2023-04-17T10:35:24.690Z,45.58
2023-04-17T10:38:05.949Z,31.75
2023-04-17T10:40:33.729Z,45.95
2023-04-17T10:43:09.821Z,46.15
2023-04-17T10:45:56.599Z,48.78
2023-04-17T10:48:23.042Z,41.70
2023-04-17T10:50:47.795Z,48.97
2023-04-17T10:53:40.252Z,45.25
2023-04-17T10:56:05.172Z,41.00
2023-04-17T10:58:32.144Z,33.67
2023-04-17T11:00:56.866Z,35.25
2023-04-17T11:03:26.076Z,39.33
2023-04-17T11:05:52.020Z,36.63
2023-04-17T11:08:17.414Z,41.83
2023-04-17T11:10:42.051Z,38.58
2023-04-17T11:13:07.117Z,36.17
2023-04-17T11:15:35.084Z,35.50
2023-04-17T11:18:03.154Z,34.08
2023-04-17T11:20:30.145Z,39.05
2023-04-17T11:22:54.695Z,37.67
2023-04-17T11:25:24.085Z,43.10
2023-04-17T11:27:51.545Z,38.40
2023-04-17T11:30:25.619Z,28.55
2023-04-17T11:32:52.729Z,44.50
2023-04-17T11:35:17.516Z,39.08
2023-04-17T11:38:11.856Z,41.90
2023-04-17T11:40:36.716Z,41.97
2023-04-17T11:43:07.928Z,48.75
2023-04-17T11:45:33.111Z,43.78
2023-04-17T11:47:59.399Z,39.85
2023-04-17T11:50:24.016Z,47.35
2023-04-17T11:52:48.568Z,45.20
2023-04-17T11:55:13.441Z,48.53
2023-04-17T11:57:43.495Z,46.88
2023-04-17T12:00:14.644Z,50.03
2023-04-17T12:02:40.819Z,51.92
2023-04-17T12:05:17.798Z,48.65
2023-04-17T12:07:42.549Z,42.97
2023-04-17T12:10:08.599Z,51.97
2023-04-17T12:12:33.289Z,46.10
2023-04-17T12:14:59.146Z,52.35
2023-04-17T12:17:23.855Z,51.85
2023-04-17T12:19:48.581Z,54.38
2023-04-17T12:22:14.841Z,48.15
2023-04-17T12:24:39.433Z,41.33
2023-04-17T12:27:04.532Z,49.75
2023-04-17T12:29:43.080Z,47.28
2023-04-17T12:32:10.545Z,50.40
2023-04-17T12:34:35.302Z,47.15
2023-04-17T12:36:59.967Z,42.97
2023-04-17T12:39:28.945Z,40.97
2023-04-17T12:41:53.882Z,38.70
2023-04-17T12:44:18.314Z,41.22
2023-04-17T12:46:43.194Z,45.03
2023-04-17T12:49:07.913Z,36.10
2023-04-17T12:51:37.773Z,37.67
2023-04-17T12:54:02.519Z,41.97
2023-04-17T12:56:29.036Z,45.13
2023-04-17T12:58:53.636Z,38.25
2023-04-17T13:01:18.457Z,33.60
2023-04-17T13:03:43.761Z,36.33
2023-04-17T13:06:08.982Z,40.53
2023-04-17T13:08:34.012Z,31.83
2023-04-17T13:11:00.017Z,36.60
2023-04-17T13:13:26.927Z,33.53
2023-04-17T13:15:51.610Z,33.33
2023-04-17T13:18:16.353Z,34.75
2023-04-17T13:20:41.247Z,36.45
2023-04-17T13:23:05.933Z,38.78
2023-04-17T13:25:31.532Z,32.58
2023-04-17T13:27:56.330Z,31.65
2023-04-17T13:30:22.874Z,30.77
2023-04-17T13:32:47.736Z,26.00
2023-04-17T13:35:13.490Z,38.78
2023-04-17T13:37:38.232Z,30.08
2023-04-17T13:40:05.272Z,34.45
2023-04-17T13:42:30.038Z,29.75
2023-04-17T13:44:55.347Z,29.13
2023-04-17T13:47:21.502Z,34.78
2023-04-17T13:49:46.105Z,26.70
2023-04-17T13:52:10.763Z,31.08
2023-04-17T13:54:39.778Z,22.48
2023-04-17T13:57:10.079Z,26.02
2023-04-17T13:59:34.773Z,24.92
2023-04-17T14:02:01.588Z,32.70
2023-04-17T14:04:28.092Z,24.05
2023-04-17T14:06:52.813Z,26.65
2023-04-17T14:09:17.742Z,28.35
2023-04-17T14:11:42.313Z,32.80
2023-04-17T14:14:06.923Z,33.88
2023-04-17T14:16:31.541Z,27.52
2023-04-17T14:18:57.894Z,32.50
2023-04-17T14:21:27.853Z,30.75
2023-04-17T14:23:52.540Z,38.25
2023-04-17T14:26:17.366Z,30.83
2023-04-17T14:28:42.479Z,30.25
2023-04-17T14:31:07.520Z,27.98
2023-04-17T14:33:32.130Z,31.40
2023-04-17T14:35:57.747Z,31.65
2023-04-17T14:38:26.609Z,31.85
2023-04-17T14:40:51.535Z,32.17
2023-04-17T14:43:16.125Z,28.00
2023-04-17T14:45:41.109Z,32.78
2023-04-17T14:48:06.238Z,29.75
2023-04-17T14:50:31.051Z,27.80
2023-04-17T14:52:55.916Z,26.13
2023-04-17T14:55:22.436Z,31.10
2023-04-17T14:57:47.358Z,28.88
2023-04-17T15:00:12.762Z,26.35
2023-04-17T15:02:39.510Z,26.60
2023-04-17T15:05:04.803Z,25.27
2023-04-17T15:07:29.930Z,22.63
2023-04-17T15:09:56.334Z,24.77
2023-04-17T15:12:22.926Z,26.05
2023-04-17T15:14:47.713Z,24.85
2023-04-17T15:17:12.486Z,31.90
2023-04-17T15:19:37.557Z,28.10
2023-04-17T15:22:02.334Z,22.27
2023-04-17T15:24:27.267Z,23.45
2023-04-17T15:26:52.441Z,27.45
2023-04-17T15:29:18.539Z,21.27
2023-04-17T15:31:43.294Z,26.27
2023-04-17T15:34:08.769Z,24.02
2023-04-17T15:36:33.485Z,19.65
2023-04-17T15:38:59.344Z,30.13
2023-04-17T15:41:24.148Z,22.77
2023-04-17T15:43:49.075Z,23.45
2023-04-17T15:46:15.126Z,25.75
2023-04-17T15:48:39.737Z,21.38
2023-04-17T15:51:05.191Z,28.83
2023-04-17T15:53:30.323Z,24.92
2023-04-17T15:55:54.874Z,23.77
2023-04-17T15:58:19.787Z,24.92
2023-04-17T16:00:44.288Z,23.75
2023-04-17T16:03:10.697Z,23.45
2023-04-17T16:05:35.526Z,26.50
2023-04-17T16:08:01.449Z,27.10
2023-04-17T16:10:26.438Z,21.33
2023-04-17T16:12:51.238Z,25.65
2023-04-17T16:15:18.438Z,20.15
2023-04-17T16:17:43.383Z,26.67
2023-04-17T16:20:11.071Z,25.13
2023-04-17T16:22:36.148Z,19.90
2023-04-17T16:25:01.895Z,27.25
2023-04-17T16:27:30.609Z,22.27
2023-04-17T16:29:55.174Z,22.55
2023-04-17T16:32:22.691Z,19.33
2023-04-17T16:34:47.644Z,26.30
2023-04-17T16:37:14.928Z,18.73
2023-04-17T16:39:39.619Z,22.42
2023-04-17T16:42:04.471Z,23.60
2023-04-17T16:44:29.774Z,23.27
2023-04-17T16:47:10.017Z,23.48
2023-04-17T16:49:37.861Z,24.63
2023-04-17T16:52:02.590Z,22.08
2023-04-17T16:54:28.725Z,23.20
2023-04-17T16:56:53.638Z,30.25
2023-04-17T16:59:18.718Z,17.67
2023-04-17T17:01:43.785Z,23.95
2023-04-17T17:04:08.570Z,18.30
2023-04-17T17:06:33.204Z,19.75
2023-04-17T17:08:59.675Z,18.98
2023-04-17T17:11:25.850Z,21.45
2023-04-17T17:13:51.288Z,18.55
2023-04-17T17:16:17.195Z,24.30
2023-04-17T17:18:42.377Z,23.25
2023-04-17T17:21:07.383Z,20.70
2023-04-17T17:23:32.280Z,24.10
2023-04-17T17:25:59.112Z,21.00
2023-04-17T17:28:28.527Z,21.50
2023-04-17T17:31:00.694Z,18.65
2023-04-17T17:33:25.283Z,18.70
2023-04-17T17:35:50.392Z,19.38
2023-04-17T17:38:15.069Z,20.67
2023-04-17T17:40:39.570Z,23.77
2023-04-17T17:43:06.709Z,19.67
2023-04-17T17:45:32.856Z,24.60
2023-04-17T17:48:01.627Z,17.02
2023-04-17T17:50:26.494Z,19.25
2023-04-17T17:52:51.478Z,21.20
2023-04-17T17:55:16.687Z,25.02
2023-04-17T17:57:48.889Z,21.42
2023-04-17T18:00:18.661Z,19.85
2023-04-17T18:02:44.940Z,24.38
2023-04-17T18:05:10.176Z,23.08
2023-04-17T18:07:35.562Z,20.30
2023-04-17T18:10:00.364Z,23.75
2023-04-17T18:12:25.117Z,23.70
2023-04-17T18:14:49.832Z,28.33
2023-04-17T18:17:14.806Z,21.00
2023-04-17T18:19:42.127Z,21.58
2023-04-17T18:22:08.896Z,24.15
2023-04-17T18:24:33.545Z,22.45
2023-04-17T18:26:58.492Z,21.58
2023-04-17T18:29:23.425Z,24.77
2023-04-17T18:31:48.217Z,16.27
2023-04-17T18:34:13.265Z,28.27
2023-04-17T18:36:39.600Z,20.60
2023-04-17T18:39:04.435Z,20.65
2023-04-17T18:41:29.372Z,27.02
2023-04-17T18:43:54.076Z,34.88
2023-04-17T18:46:18.852Z,26.42
2023-04-17T18:48:43.786Z,21.67
2023-04-17T18:51:12.621Z,26.80
2023-04-17T18:53:38.757Z,21.83
2023-04-17T18:56:03.349Z,23.92
2023-04-17T18:58:30.050Z,22.38
2023-04-17T19:00:54.887Z,27.08
2023-04-17T19:03:19.775Z,28.35
2023-04-17T19:05:44.342Z,31.45
2023-04-17T19:08:09.702Z,19.73
2023-04-17T19:10:36.730Z,32.25
2023-04-17T19:13:02.079Z,25.88
2023-04-17T19:15:26.622Z,30.50
2023-04-17T19:17:53.257Z,31.42
2023-04-17T19:20:18.125Z,31.88
2023-04-17T19:22:43.371Z,29.33
2023-04-17T19:25:08.580Z,32.13
2023-04-17T19:27:34.675Z,34.33
2023-04-17T19:29:59.222Z,30.15
2023-04-17T19:32:23.718Z,33.33
2023-04-17T19:34:48.221Z,29.63
2023-04-17T19:37:12.932Z,26.33
2023-04-17T19:39:39.764Z,27.73
2023-04-17T19:42:04.608Z,22.90
2023-04-17T19:44:30.657Z,22.65
2023-04-17T19:46:55.442Z,17.60
2023-04-17T19:49:19.911Z,22.92
2023-04-17T19:51:44.653Z,25.35
2023-04-17T19:54:10.002Z,17.70
2023-04-17T19:56:34.541Z,25.63
2023-04-17T19:59:02.217Z,23.23
2023-04-17T20:01:28.664Z,21.83
2023-04-17T20:03:53.372Z,26.45
2023-04-17T20:06:17.944Z,27.55
2023-04-17T20:08:42.342Z,19.65
2023-04-17T20:11:06.903Z,28.05
2023-04-17T20:13:31.449Z,24.30
2023-04-17T20:15:56.064Z,26.63
2023-04-17T20:18:21.952Z,27.25
2023-04-17T20:20:46.752Z,34.35
2023-04-17T20:23:12.513Z,24.08
2023-04-17T20:25:37.128Z,29.90
2023-04-17T20:28:03.201Z,18.67
2023-04-17T20:30:31.142Z,20.77
2023-04-17T20:32:56.453Z,18.77
2023-04-17T20:35:24.604Z,19.88
2023-04-17T20:37:49.279Z,24.33
2023-04-17T20:40:14.278Z,27.73
2023-04-17T20:42:39.875Z,30.33
2023-04-17T20:45:04.981Z,26.40
2023-04-17T20:47:29.613Z,31.50
2023-04-17T20:49:54.104Z,25.77
2023-04-17T20:52:19.906Z,20.80
2023-04-17T20:54:45.607Z,28.10
2023-04-17T20:57:10.407Z,27.20
2023-04-17T20:59:36.612Z,32.67
2023-04-17T21:02:01.327Z,29.50
2023-04-17T21:04:26.126Z,24.92
2023-04-17T21:06:50.855Z,28.73
2023-04-17T21:09:17.114Z,26.73
2023-04-17T21:11:41.650Z,27.35
2023-04-17T21:14:06.495Z,26.70
2023-04-17T21:16:31.485Z,25.83
2023-04-17T21:18:56.038Z,29.27
2023-04-17T21:21:20.527Z,23.88
2023-04-17T21:23:45.163Z,33.15
2023-04-17T21:26:11.517Z,32.80
2023-04-17T21:28:37.995Z,18.17
2023-04-17T21:31:02.472Z,23.27
2023-04-17T21:33:27.102Z,23.00
2023-04-17T21:35:51.729Z,23.35
2023-04-17T21:38:16.316Z,28.05
2023-04-17T21:40:50.615Z,27.85
2023-04-17T21:43:17.663Z,25.48
2023-04-17T21:45:42.309Z,28.52
2023-04-17T21:48:06.946Z,24.10
2023-04-17T21:50:32.012Z,26.50
2023-04-17T21:52:56.621Z,21.20
2023-04-17T21:55:21.322Z,27.02
2023-04-17T21:57:46.411Z,28.38
2023-04-17T22:00:14.560Z,26.92
2023-04-17T22:02:39.237Z,23.38
2023-04-17T22:05:04.062Z,27.90
2023-04-17T22:07:28.901Z,24.77
2023-04-17T22:09:53.322Z,29.45
2023-04-17T22:12:20.669Z,23.92
2023-04-17T22:14:45.267Z,33.95
2023-04-17T22:17:11.226Z,26.90
2023-04-17T22:19:35.822Z,25.10
2023-04-17T22:22:00.485Z,30.17
2023-04-17T22:24:25.040Z,30.05
2023-04-17T22:26:49.690Z,32.78
2023-04-17T22:29:14.449Z,23.08
2023-04-17T22:31:40.514Z,30.58
2023-04-17T22:34:06.643Z,27.70
2023-04-17T22:36:31.758Z,31.63
2023-04-17T22:38:56.238Z,26.95
2023-04-17T22:41:20.921Z,29.73
2023-04-17T22:43:48.688Z,28.95
2023-04-17T22:46:13.381Z,31.63
2023-04-17T22:48:38.062Z,26.25
2023-04-17T22:51:04.618Z,30.90
2023-04-17T22:53:29.674Z,36.50
2023-04-17T22:56:04.544Z,28.33
2023-04-17T22:58:29.276Z,36.30
2023-04-17T23:00:53.792Z,35.05
2023-04-17T23:03:18.543Z,29.30
2023-04-17T23:05:43.201Z,32.95
2023-04-17T23:08:09.450Z,29.00
2023-04-17T23:10:33.936Z,30.40
2023-04-17T23:12:58.573Z,38.35
2023-04-17T23:15:23.368Z,31.33
2023-04-17T23:17:48.157Z,29.75
2023-04-17T23:20:13.743Z,30.08
2023-04-17T23:22:38.588Z,31.77
2023-04-17T23:25:04.765Z,29.88
2023-04-17T23:27:29.432Z,33.78
2023-04-17T23:29:53.879Z,30.27
2023-04-17T23:32:18.396Z,27.45
2023-04-17T23:34:43.580Z,33.63
2023-04-17T23:37:08.166Z,30.15
2023-04-17T23:39:32.904Z,32.25
2023-04-17T23:42:00.474Z,28.42
2023-04-17T23:44:24.976Z,31.85
2023-04-17T23:46:49.488Z,30.98
2023-04-17T23:49:14.274Z,41.17
2023-04-17T23:51:39.693Z,30.85
2023-04-17T23:54:04.287Z,27.67
2023-04-17T23:56:30.179Z,30.52
2023-04-17T23:58:56.351Z,28.10
